createdAt,value
2023-04-26T00:00:20.173Z,15.18
2023-04-26T00:03:18.293Z,14.15
2023-04-26T00:06:16.939Z,13.43
2023-04-26T00:09:15.188Z,11.93
2023-04-26T00:12:13.001Z,12.52
2023-04-26T00:15:11.853Z,10.88
2023-04-26T00:18:09.663Z,15.27
2023-04-26T00:21:07.733Z,11.10
2023-04-26T00:24:06.454Z,17.75
2023-04-26T00:27:09.747Z,15.05
2023-04-26T00:33:05.682Z,12.13
2023-04-26T00:36:03.706Z,12.70
2023-04-26T00:39:01.794Z,10.73
2023-04-26T00:41:59.901Z,10.75
2023-04-26T00:44:58.305Z,14.00
2023-04-26T00:47:56.765Z,11.85
2023-04-26T00:50:54.880Z,10.85
2023-04-26T00:53:53.044Z,11.50
2023-04-26T00:56:53.773Z,11.50
2023-04-26T00:59:51.994Z,10.73
2023-04-26T01:02:50.247Z,11.23
2023-04-26T01:05:48.878Z,11.82
2023-04-26T01:08:47.612Z,11.00
2023-04-26T01:11:46.091Z,10.50
2023-04-26T01:14:44.823Z,10.98
2023-04-26T01:17:45.042Z,11.55
2023-04-26T01:20:43.774Z,10.68
2023-04-26T01:23:41.682Z,10.38
2023-04-26T01:26:46.131Z,11.60
2023-04-26T01:29:44.376Z,12.45
2023-04-26T01:32:42.456Z,12.93
2023-04-26T01:35:40.417Z,11.77
2023-04-26T01:38:38.679Z,11.20
2023-04-26T01:41:37.208Z,15.85
2023-04-26T01:44:35.136Z,19.88
2023-04-26T01:47:32.952Z,17.67
2023-04-26T01:50:30.862Z,15.02
2023-04-26T01:53:28.692Z,20.63
2023-04-26T01:56:27.027Z,16.90
2023-04-26T01:59:25.019Z,21.05
2023-04-26T02:02:23.119Z,17.38
2023-04-26T02:05:21.057Z,17.45
2023-04-26T02:08:19.259Z,19.80
2023-04-26T02:11:17.160Z,18.38
2023-04-26T02:14:16.297Z,16.42
2023-04-26T02:17:15.228Z,20.95
2023-04-26T02:20:13.594Z,27.10
2023-04-26T02:23:12.223Z,19.58
2023-04-26T02:26:10.168Z,19.30
2023-04-26T02:29:08.065Z,18.23
2023-04-26T02:32:06.433Z,21.38
2023-04-26T02:35:05.744Z,23.70
2023-04-26T02:38:04.175Z,18.02
2023-04-26T02:41:03.187Z,25.63
2023-04-26T02:44:01.085Z,20.77
2023-04-26T02:46:59.251Z,23.40
2023-04-26T02:49:57.631Z,24.20
2023-04-26T02:52:55.434Z,22.33
2023-04-26T02:55:53.325Z,22.13
2023-04-26T02:58:51.559Z,25.15
2023-04-26T03:01:49.717Z,23.77
2023-04-26T03:04:47.891Z,28.02
2023-04-26T03:07:45.815Z,23.27
2023-04-26T03:10:46.523Z,25.20
2023-04-26T03:13:44.590Z,27.40
2023-04-26T03:16:43.800Z,31.65
2023-04-26T03:19:41.701Z,25.85
2023-04-26T03:22:39.806Z,25.77
2023-04-26T03:25:38.042Z,29.98
2023-04-26T03:28:36.292Z,27.58
2023-04-26T03:31:34.303Z,26.63
2023-04-26T03:34:32.246Z,21.92
2023-04-26T03:37:30.257Z,28.92
2023-04-26T03:40:28.032Z,24.50
2023-04-26T03:43:25.936Z,26.38
2023-04-26T03:46:23.829Z,24.25
2023-04-26T03:49:21.791Z,22.63
2023-04-26T03:52:20.622Z,22.55
2023-04-26T03:55:18.659Z,26.52
2023-04-26T03:58:16.433Z,28.88
2023-04-26T04:01:14.461Z,30.40
2023-04-26T04:04:12.535Z,30.85
2023-04-26T04:07:10.798Z,25.15
2023-04-26T04:10:10.606Z,22.58
2023-04-26T04:13:08.618Z,25.85
2023-04-26T04:16:07.536Z,26.83
2023-04-26T04:19:08.242Z,25.85
2023-04-26T04:22:06.319Z,24.98
2023-04-26T04:25:06.583Z,27.55
2023-04-26T04:28:04.720Z,21.80
2023-04-26T04:31:02.704Z,27.15
2023-04-26T04:34:00.487Z,28.30
2023-04-26T04:36:58.464Z,28.13
2023-04-26T04:39:57.774Z,24.85
2023-04-26T04:42:56.117Z,20.60
2023-04-26T04:45:54.446Z,23.77
2023-04-26T04:48:52.805Z,22.25
2023-04-26T04:51:51.017Z,29.63
2023-04-26T04:54:49.473Z,22.88
2023-04-26T04:57:47.288Z,24.70
2023-04-26T05:00:46.379Z,21.02
2023-04-26T05:03:44.341Z,20.00
2023-04-26T05:06:42.541Z,19.90
2023-04-26T05:09:40.312Z,19.85
2023-04-26T05:12:38.823Z,21.95
2023-04-26T05:15:39.756Z,17.17
2023-04-26T05:18:37.725Z,20.10
2023-04-26T05:21:35.569Z,21.25
2023-04-26T05:24:33.753Z,23.15
2023-04-26T05:27:31.656Z,15.63
2023-04-26T05:30:29.635Z,17.08
2023-04-26T05:33:28.529Z,14.25
2023-04-26T05:36:29.629Z,18.50
2023-04-26T05:39:27.777Z,17.05
2023-04-26T05:42:25.728Z,19.40
2023-04-26T05:45:23.562Z,16.08
2023-04-26T05:48:23.928Z,16.55
2023-04-26T05:51:22.201Z,17.27
2023-04-26T05:54:20.136Z,18.65
2023-04-26T05:57:19.515Z,18.55
2023-04-26T06:00:20.065Z,18.65
2023-04-26T06:03:18.066Z,18.60
2023-04-26T06:06:16.547Z,16.77
2023-04-26T06:09:14.402Z,17.50
2023-04-26T06:12:12.948Z,16.30
2023-04-26T06:15:11.544Z,12.90
2023-04-26T06:18:09.536Z,17.63
2023-04-26T06:21:07.792Z,16.23
2023-04-26T06:24:06.034Z,16.23
2023-04-26T06:27:03.901Z,18.58
2023-04-26T06:30:01.885Z,13.90
2023-04-26T06:33:00.751Z,16.85
2023-04-26T06:35:58.725Z,21.00
2023-04-26T06:38:56.507Z,18.48
2023-04-26T06:41:54.644Z,22.35
2023-04-26T06:44:52.447Z,24.33
2023-04-26T06:47:53.756Z,18.52
2023-04-26T06:50:51.629Z,16.60
2023-04-26T06:53:50.449Z,23.15
2023-04-26T06:56:48.397Z,17.65
2023-04-26T06:59:46.308Z,20.40
2023-04-26T07:02:44.229Z,15.40
2023-04-26T07:05:42.349Z,21.52
2023-04-26T07:08:40.101Z,16.98
2023-04-26T07:11:37.982Z,15.13
2023-04-26T07:14:39.623Z,19.30
2023-04-26T07:17:37.554Z,18.20
2023-04-26T07:20:35.398Z,18.30
2023-04-26T07:23:33.648Z,19.35
2023-04-26T07:26:32.010Z,18.67
2023-04-26T07:29:29.888Z,18.65
2023-04-26T07:32:27.893Z,18.67
2023-04-26T07:35:26.499Z,18.70
2023-04-26T07:38:24.883Z,21.52
2023-04-26T07:41:22.844Z,24.02
2023-04-26T07:44:20.593Z,19.23
2023-04-26T07:47:18.513Z,18.83
2023-04-26T07:50:16.388Z,19.33
2023-04-26T07:53:14.309Z,15.45
2023-04-26T07:56:12.155Z,19.33
2023-04-26T07:59:10.036Z,18.90
2023-04-26T08:02:07.901Z,19.17
2023-04-26T08:05:08.383Z,22.35
2023-04-26T08:08:06.363Z,12.45
2023-04-26T08:11:08.693Z,15.80
2023-04-26T08:14:06.451Z,13.88
2023-04-26T08:17:04.379Z,16.88
2023-04-26T08:20:02.269Z,18.10
2023-04-26T08:23:00.816Z,18.25
2023-04-26T08:25:58.627Z,21.40
2023-04-26T08:28:57.894Z,23.70
2023-04-26T08:31:55.990Z,22.67
2023-04-26T08:34:53.885Z,19.20
2023-04-26T08:37:52.760Z,19.15
2023-04-26T08:40:52.206Z,20.50
2023-04-26T08:43:51.017Z,15.75
2023-04-26T08:47:14.160Z,20.48
2023-04-26T08:50:15.100Z,22.70
2023-04-26T08:53:17.512Z,22.45
2023-04-26T08:56:15.577Z,22.27
2023-04-26T08:59:15.144Z,18.92
2023-04-26T09:02:18.368Z,21.20
2023-04-26T09:05:16.474Z,25.48
2023-04-26T09:08:18.160Z,20.10
2023-04-26T09:11:16.105Z,27.13
2023-04-26T09:14:13.937Z,22.38
2023-04-26T09:17:37.238Z,23.55
2023-04-26T09:20:35.085Z,25.15
2023-04-26T09:23:33.648Z,21.88
2023-04-26T09:26:31.720Z,22.30
2023-04-26T09:29:29.592Z,25.63
2023-04-26T09:32:28.157Z,24.15
2023-04-26T09:35:30.048Z,22.30
2023-04-26T09:38:29.368Z,25.10
2023-04-26T09:41:44.625Z,29.23
2023-04-26T09:44:42.473Z,19.05
2023-04-26T09:47:40.526Z,24.88
2023-04-26T09:50:38.385Z,25.17
2023-04-26T09:53:39.176Z,28.83
2023-04-26T09:56:37.068Z,24.08
2023-04-26T09:59:44.142Z,27.83
2023-04-26T10:02:42.382Z,22.23
2023-04-26T10:05:40.602Z,22.20
2023-04-26T10:08:38.431Z,22.80
2023-04-26T10:11:38.886Z,22.15
2023-04-26T10:14:37.554Z,25.88
2023-04-26T10:17:35.454Z,22.45
2023-04-26T10:20:33.978Z,27.60
2023-04-26T10:23:33.824Z,33.03
2023-04-26T10:26:57.739Z,30.73
2023-04-26T10:30:10.799Z,25.80
2023-04-26T10:33:14.493Z,25.55
2023-04-26T10:36:14.395Z,28.88
2023-04-26T10:39:22.661Z,25.27
2023-04-26T10:42:26.983Z,22.95
2023-04-26T10:45:28.373Z,24.95
2023-04-26T10:48:32.505Z,23.08
2023-04-26T10:51:30.293Z,25.55
2023-04-26T10:54:51.360Z,26.02
2023-04-26T10:57:52.857Z,31.02
2023-04-26T11:01:07.761Z,30.77
2023-04-26T11:04:10.742Z,26.30
2023-04-26T11:10:11.046Z,19.73
2023-04-26T11:13:09.218Z,18.67
2023-04-26T11:16:09.079Z,18.08
2023-04-26T11:19:07.259Z,23.63
2023-04-26T11:22:08.020Z,20.63
2023-04-26T11:25:06.451Z,21.30
2023-04-26T11:28:04.589Z,24.45
2023-04-26T11:31:04.738Z,25.83
2023-04-26T11:34:05.750Z,19.95
2023-04-26T11:37:05.350Z,20.65
2023-04-26T11:40:06.513Z,24.10
2023-04-26T11:43:06.659Z,21.10
2023-04-26T11:46:06.288Z,22.95
2023-04-26T11:49:04.311Z,19.33
2023-04-26T11:52:02.930Z,26.65
2023-04-26T11:55:05.207Z,26.48
2023-04-26T11:58:11.561Z,27.05
2023-04-26T12:01:09.494Z,23.17
2023-04-26T12:04:11.158Z,29.17
2023-04-26T12:07:10.016Z,23.70
2023-04-26T12:10:26.394Z,24.58
2023-04-26T12:13:26.385Z,21.75
2023-04-26T12:16:26.745Z,25.30
2023-04-26T12:19:25.409Z,24.38
2023-04-26T12:22:23.220Z,24.08
2023-04-26T12:25:21.147Z,29.52
2023-04-26T12:28:18.937Z,26.10
2023-04-26T12:31:16.873Z,25.45
2023-04-26T12:34:14.804Z,23.33
2023-04-26T12:37:12.684Z,24.02
2023-04-26T12:40:11.344Z,22.13
2023-04-26T12:43:09.572Z,26.20
2023-04-26T12:46:07.393Z,31.48
2023-04-26T12:49:05.772Z,28.70
2023-04-26T12:52:04.102Z,26.65
2023-04-26T12:55:02.122Z,35.50
2023-04-26T12:58:00.049Z,24.35
2023-04-26T13:00:58.088Z,36.05
2023-04-26T13:03:57.131Z,30.98
2023-04-26T13:06:55.486Z,27.13
2023-04-26T13:09:53.413Z,40.13
2023-04-26T13:12:51.382Z,34.10
2023-04-26T13:15:49.289Z,29.02
2023-04-26T13:18:47.319Z,52.22
2023-04-26T13:21:45.118Z,32.80
2023-04-26T13:24:43.033Z,25.52
2023-04-26T13:27:40.836Z,22.20
2023-04-26T13:30:38.723Z,25.02
2023-04-26T13:33:36.668Z,25.10
2023-04-26T13:36:35.012Z,20.08
2023-04-26T13:39:32.910Z,22.67
2023-04-26T13:42:30.877Z,20.80
2023-04-26T13:45:28.732Z,20.25
2023-04-26T13:48:26.824Z,19.50
2023-04-26T13:51:27.469Z,14.93
2023-04-26T13:54:26.738Z,15.25
2023-04-26T13:57:24.497Z,16.17
2023-04-26T14:00:23.364Z,16.42
2023-04-26T14:03:21.355Z,11.73
2023-04-26T14:06:19.339Z,13.13
2023-04-26T14:09:17.994Z,11.20
2023-04-26T14:12:15.936Z,15.07
2023-04-26T14:15:13.778Z,9.60
2023-04-26T14:18:11.938Z,16.10
2023-04-26T14:21:09.730Z,16.13
2023-04-26T14:24:07.959Z,15.82
2023-04-26T14:27:05.728Z,13.93
2023-04-26T14:30:03.679Z,17.27
2023-04-26T14:33:01.859Z,14.77
2023-04-26T14:36:00.339Z,16.73
2023-04-26T14:38:58.137Z,22.63
2023-04-26T14:41:57.454Z,25.85
2023-04-26T14:44:55.495Z,30.00
2023-04-26T14:47:53.500Z,29.45
2023-04-26T14:50:58.398Z,23.38
2023-04-26T14:53:56.433Z,19.52
2023-04-26T14:56:55.029Z,22.35
2023-04-26T14:59:52.962Z,25.65
2023-04-26T15:02:50.844Z,21.75
2023-04-26T15:05:48.832Z,26.83
2023-04-26T15:08:46.788Z,22.63
2023-04-26T15:11:44.701Z,20.83
2023-04-26T15:14:42.535Z,21.95
2023-04-26T15:17:40.438Z,21.10
2023-04-26T15:20:41.996Z,20.38
2023-04-26T15:23:39.981Z,23.80
2023-04-26T15:26:38.211Z,24.90
2023-04-26T15:29:36.626Z,24.30
2023-04-26T15:32:34.390Z,22.83
2023-04-26T15:35:32.348Z,22.77
2023-04-26T15:38:30.135Z,20.00
2023-04-26T15:41:28.129Z,20.73
2023-04-26T15:44:26.015Z,23.52
2023-04-26T15:47:23.968Z,24.15
2023-04-26T15:50:21.940Z,25.45
2023-04-26T15:53:20.434Z,22.58
2023-04-26T15:56:18.751Z,23.13
2023-04-26T15:59:17.913Z,20.63
2023-04-26T16:02:15.984Z,24.65
2023-04-26T16:05:14.189Z,23.92
2023-04-26T16:08:12.040Z,20.00
2023-04-26T16:11:10.219Z,23.73
2023-04-26T16:14:08.036Z,25.50
2023-04-26T16:17:06.033Z,22.27
2023-04-26T16:20:07.160Z,23.75
2023-04-26T16:23:05.226Z,25.02
2023-04-26T16:26:03.842Z,25.90
2023-04-26T16:29:02.120Z,24.83
2023-04-26T16:32:00.220Z,28.10
2023-04-26T16:34:58.298Z,24.98
2023-04-26T16:37:56.204Z,23.23
2023-04-26T16:40:58.511Z,28.17
2023-04-26T16:43:56.672Z,22.77
2023-04-26T16:46:54.595Z,22.65
2023-04-26T16:49:52.459Z,24.10
2023-04-26T16:52:50.362Z,23.73
2023-04-26T16:55:49.184Z,24.70
2023-04-26T16:58:47.370Z,24.23
2023-04-26T17:01:45.161Z,24.42
2023-04-26T17:04:43.302Z,24.58
2023-04-26T17:07:41.293Z,25.45
2023-04-26T17:10:39.437Z,22.33
2023-04-26T17:13:38.232Z,22.15
2023-04-26T17:16:36.441Z,27.55
2023-04-26T17:19:34.306Z,25.33
2023-04-26T17:22:32.188Z,25.58
2023-04-26T17:25:30.294Z,24.77
2023-04-26T17:28:28.235Z,26.42
2023-04-26T17:31:26.055Z,27.90
2023-04-26T17:34:24.050Z,27.30
2023-04-26T17:37:21.983Z,23.60
2023-04-26T17:40:20.284Z,24.75
2023-04-26T17:43:18.316Z,28.90
2023-04-26T17:46:16.467Z,27.08
2023-04-26T17:49:14.314Z,26.23
2023-04-26T17:52:12.307Z,28.20
2023-04-26T17:55:10.390Z,27.15
2023-04-26T17:58:08.623Z,27.25
2023-04-26T18:01:06.460Z,27.27
2023-04-26T18:04:04.706Z,28.10
2023-04-26T18:07:02.645Z,28.92
2023-04-26T18:10:00.483Z,24.67
2023-04-26T18:12:58.259Z,30.52
2023-04-26T18:15:56.740Z,28.80
2023-04-26T18:18:54.558Z,23.92
2023-04-26T18:21:54.163Z,28.15
2023-04-26T18:24:51.939Z,27.63
2023-04-26T18:27:49.919Z,30.00
2023-04-26T18:30:47.836Z,25.10
2023-04-26T18:33:48.741Z,26.42
2023-04-26T18:36:46.681Z,25.48
2023-04-26T18:39:44.694Z,30.67
2023-04-26T18:42:42.630Z,25.27
2023-04-26T18:45:40.639Z,23.30
2023-04-26T18:48:38.395Z,31.05
2023-04-26T18:51:36.489Z,26.98
2023-04-26T18:54:34.734Z,28.85
2023-04-26T18:57:33.164Z,28.00
2023-04-26T19:00:31.015Z,25.02
2023-04-26T19:03:29.354Z,25.88
2023-04-26T19:06:28.674Z,30.33
2023-04-26T19:09:26.592Z,22.40
2023-04-26T19:12:25.040Z,25.17
2023-04-26T19:15:22.899Z,23.13
2023-04-26T19:18:20.676Z,24.23
2023-04-26T19:21:18.576Z,28.67
2023-04-26T19:24:16.464Z,26.45
2023-04-26T19:27:14.374Z,27.77
2023-04-26T19:30:12.720Z,28.15
2023-04-26T19:33:10.624Z,25.00
2023-04-26T19:36:11.143Z,27.75
2023-04-26T19:39:09.317Z,30.60
2023-04-26T19:42:07.121Z,24.52
2023-04-26T19:45:05.287Z,22.08
2023-04-26T19:48:03.088Z,24.40
2023-04-26T19:51:01.440Z,24.23
2023-04-26T19:53:59.215Z,24.63
2023-04-26T19:56:57.352Z,23.77
2023-04-26T19:59:55.135Z,26.30
2023-04-26T20:02:53.517Z,25.60
2023-04-26T20:05:51.651Z,26.25
2023-04-26T20:08:49.676Z,21.65
2023-04-26T20:11:48.084Z,24.67
2023-04-26T20:14:46.131Z,27.25
2023-04-26T20:17:44.645Z,26.15
2023-04-26T20:20:42.791Z,22.35
2023-04-26T20:23:40.695Z,23.08
2023-04-26T20:26:38.719Z,24.17
2023-04-26T20:29:36.678Z,22.92
2023-04-26T20:32:36.173Z,25.23
2023-04-26T20:35:34.354Z,22.40
2023-04-26T20:38:32.688Z,25.50
2023-04-26T20:41:30.677Z,23.17
2023-04-26T20:44:28.679Z,24.58
2023-04-26T20:47:26.613Z,25.60
2023-04-26T20:50:24.770Z,24.05
2023-04-26T20:53:22.710Z,26.08
2023-04-26T20:56:20.628Z,26.10
2023-04-26T20:59:18.420Z,23.42
2023-04-26T21:02:20.219Z,24.60
2023-04-26T21:05:18.098Z,26.27
2023-04-26T21:08:16.081Z,28.88
2023-04-26T21:11:14.052Z,22.33
2023-04-26T21:14:11.942Z,22.75
2023-04-26T21:17:09.702Z,23.77
2023-04-26T21:20:08.275Z,21.20
2023-04-26T21:23:06.180Z,19.20
2023-04-26T21:26:04.080Z,20.60
2023-04-26T21:29:01.958Z,20.08
2023-04-26T21:31:59.882Z,20.23
2023-04-26T21:34:57.657Z,19.92
2023-04-26T21:37:55.539Z,23.05
2023-04-26T21:40:53.544Z,18.40
2023-04-26T21:43:51.471Z,17.15
2023-04-26T21:46:49.357Z,24.63
2023-04-26T21:49:47.302Z,18.88
2023-04-26T21:52:45.071Z,16.60
2023-04-26T21:55:43.193Z,19.48
2023-04-26T21:58:42.357Z,16.42
2023-04-26T22:01:40.260Z,17.98
2023-04-26T22:04:38.023Z,16.13
2023-04-26T22:07:36.319Z,17.48
2023-04-26T22:10:34.485Z,18.88
2023-04-26T22:13:33.519Z,17.80
2023-04-26T22:16:32.432Z,15.60
2023-04-26T22:19:30.390Z,17.48
2023-04-26T22:22:28.195Z,15.48
2023-04-26T22:25:27.298Z,14.68
2023-04-26T22:28:25.132Z,19.73
2023-04-26T22:31:23.086Z,14.90
2023-04-26T22:34:21.022Z,14.77
2023-04-26T22:37:21.120Z,13.43
2023-04-26T22:40:19.306Z,16.33
2023-04-26T22:43:17.403Z,16.50
2023-04-26T22:46:15.188Z,17.35
2023-04-26T22:49:13.357Z,14.68
2023-04-26T22:52:17.326Z,17.45
2023-04-26T22:55:26.494Z,13.13
2023-04-26T22:58:24.310Z,15.32
2023-04-26T23:01:22.321Z,12.20
2023-04-26T23:04:20.152Z,16.33
2023-04-26T23:07:18.082Z,14.18
2023-04-26T23:10:15.903Z,12.00
2023-04-26T23:13:15.286Z,15.13
2023-04-26T23:16:14.991Z,14.63
2023-04-26T23:19:13.507Z,15.30
2023-04-26T23:22:11.790Z,14.02
2023-04-26T23:25:10.286Z,15.82
2023-04-26T23:28:08.244Z,14.32
2023-04-26T23:31:07.282Z,13.52
2023-04-26T23:34:05.222Z,17.42
2023-04-26T23:37:07.944Z,14.18
2023-04-26T23:40:07.207Z,11.85
2023-04-26T23:43:06.804Z,13.75
2023-04-26T23:46:04.706Z,12.05
2023-04-26T23:49:02.673Z,13.80
2023-04-26T23:52:00.462Z,18.85
2023-04-26T23:54:58.473Z,17.85
2023-04-26T23:57:56.463Z,17.77
